createdAt,value
2018-07-22T00:00:20.156Z,0.00
2018-07-22T00:01:20.157Z,0.00
2018-07-22T00:02:20.157Z,0.00
2018-07-22T00:03:20.160Z,0.00
2018-07-22T00:04:20.158Z,0.00
2018-07-22T00:05:20.158Z,0.00
2018-07-22T00:06:20.160Z,0.00
2018-07-22T00:07:20.161Z,0.00
2018-07-22T00:08:20.163Z,0.00
2018-07-22T00:09:20.160Z,0.00
2018-07-22T00:10:20.165Z,0.00
2018-07-22T00:11:20.164Z,0.00
2018-07-22T00:12:20.165Z,0.00
2018-07-22T00:13:20.164Z,0.00
2018-07-22T00:14:20.166Z,0.00
2018-07-22T00:15:20.167Z,0.00
2018-07-22T00:16:20.166Z,0.00
2018-07-22T00:17:20.167Z,0.00
2018-07-22T00:18:20.168Z,0.00
2018-07-22T00:19:20.169Z,0.00
2018-07-22T00:20:20.168Z,0.00
2018-07-22T00:21:20.168Z,0.00
2018-07-22T00:22:20.169Z,0.00
2018-07-22T00:23:20.174Z,0.00
2018-07-22T00:24:20.171Z,0.00
2018-07-22T00:25:20.174Z,0.00
2018-07-22T00:26:20.171Z,0.00
2018-07-22T00:27:20.173Z,0.00
2018-07-22T00:28:20.172Z,0.00
2018-07-22T00:29:20.193Z,0.00
2018-07-22T00:30:20.174Z,0.00
2018-07-22T00:31:20.176Z,0.00
2018-07-22T00:32:20.175Z,0.00
2018-07-22T00:33:20.175Z,0.00
2018-07-22T00:34:20.177Z,0.00
2018-07-22T00:35:20.179Z,0.00
2018-07-22T00:36:20.178Z,0.00
2018-07-22T00:37:20.181Z,0.00
2018-07-22T00:38:20.179Z,0.00
2018-07-22T00:39:20.179Z,0.00
2018-07-22T00:40:20.181Z,0.00
2018-07-22T00:41:20.179Z,0.00
2018-07-22T00:42:20.180Z,0.00
2018-07-22T00:43:20.181Z,0.00
2018-07-22T00:44:20.180Z,0.00
2018-07-22T00:45:20.182Z,0.00
2018-07-22T00:46:20.184Z,0.00
2018-07-22T00:47:20.184Z,0.00
2018-07-22T00:48:20.183Z,0.00
2018-07-22T00:49:20.184Z,0.00
2018-07-22T00:50:20.185Z,0.00
2018-07-22T00:51:20.186Z,0.00
2018-07-22T00:52:20.185Z,0.00
2018-07-22T00:53:20.186Z,0.00
2018-07-22T00:54:20.186Z,0.00
2018-07-22T00:55:20.187Z,0.00
2018-07-22T00:56:20.187Z,0.00
2018-07-22T00:57:20.187Z,0.00
2018-07-22T00:58:20.188Z,0.00
2018-07-22T00:59:20.192Z,0.00
2018-07-22T01:00:20.250Z,0.00
2018-07-22T01:01:20.190Z,0.00
2018-07-22T01:02:20.191Z,0.00
2018-07-22T01:03:20.191Z,0.00
2018-07-22T01:04:20.193Z,0.00
2018-07-22T01:05:20.192Z,0.00
2018-07-22T01:06:20.193Z,0.00
2018-07-22T01:07:20.193Z,0.00
2018-07-22T01:08:20.193Z,0.00
2018-07-22T01:09:20.194Z,0.00
2018-07-22T01:10:20.195Z,0.00
2018-07-22T01:11:20.195Z,0.00
2018-07-22T01:12:20.194Z,0.00
2018-07-22T01:13:20.196Z,0.00
2018-07-22T01:14:20.203Z,0.00
2018-07-22T01:15:20.197Z,0.00
2018-07-22T01:16:20.198Z,0.00
2018-07-22T01:17:20.197Z,0.00
2018-07-22T01:18:20.198Z,0.00
2018-07-22T01:19:20.200Z,0.00
2018-07-22T01:20:20.199Z,0.00
2018-07-22T01:21:20.199Z,0.00
2018-07-22T01:22:20.200Z,0.00
2018-07-22T01:23:20.200Z,0.00
2018-07-22T01:24:20.200Z,0.00
2018-07-22T01:25:20.200Z,0.00
2018-07-22T01:26:20.205Z,0.00
2018-07-22T01:27:20.202Z,0.00
2018-07-22T01:28:20.202Z,0.00
2018-07-22T01:29:20.204Z,0.00
2018-07-22T01:30:20.207Z,0.00
2018-07-22T01:31:20.203Z,0.00
2018-07-22T01:32:20.204Z,0.00
2018-07-22T01:33:20.204Z,0.00
2018-07-22T01:34:20.205Z,0.00
2018-07-22T01:35:20.205Z,0.00
2018-07-22T01:36:20.204Z,0.00
2018-07-22T01:37:20.205Z,0.00
2018-07-22T01:38:20.206Z,0.00
2018-07-22T01:39:20.206Z,0.00
2018-07-22T01:40:20.206Z,0.00
2018-07-22T01:41:20.207Z,0.00
2018-07-22T01:42:20.208Z,0.00
2018-07-22T01:43:20.256Z,0.00
2018-07-22T01:44:20.209Z,0.00
2018-07-22T01:45:20.210Z,0.00
2018-07-22T01:46:20.211Z,0.00
2018-07-22T01:47:20.211Z,0.00
2018-07-22T01:48:20.211Z,0.00
2018-07-22T01:49:20.212Z,0.00
2018-07-22T01:50:20.213Z,0.00
2018-07-22T01:51:20.213Z,0.00
2018-07-22T01:52:20.212Z,0.00
2018-07-22T01:53:20.215Z,0.00
2018-07-22T01:54:20.213Z,0.00
2018-07-22T01:55:20.214Z,0.00
2018-07-22T01:56:20.213Z,0.00
2018-07-22T01:57:20.215Z,0.00
2018-07-22T01:58:20.216Z,0.00
2018-07-22T01:59:20.217Z,0.00
2018-07-22T02:00:20.216Z,0.00
2018-07-22T02:01:20.217Z,0.00
2018-07-22T02:02:20.217Z,0.00
2018-07-22T02:03:20.218Z,0.00
2018-07-22T02:04:20.218Z,0.00
2018-07-22T02:05:20.218Z,0.00
2018-07-22T02:06:20.219Z,0.00
2018-07-22T02:07:20.219Z,0.00
2018-07-22T02:08:20.220Z,0.00
2018-07-22T02:09:20.220Z,0.00
2018-07-22T02:10:20.221Z,0.00
2018-07-22T02:11:20.221Z,0.00
2018-07-22T02:12:20.225Z,0.00
2018-07-22T02:13:20.222Z,0.00
2018-07-22T02:14:20.223Z,0.00
2018-07-22T02:15:20.223Z,0.00
2018-07-22T02:16:20.224Z,0.00
2018-07-22T02:17:20.223Z,0.00
2018-07-22T02:18:20.224Z,0.00
2018-07-22T02:19:20.223Z,0.00
2018-07-22T02:20:20.225Z,0.00
2018-07-22T02:21:20.226Z,0.00
2018-07-22T02:22:20.225Z,0.00
2018-07-22T02:23:20.226Z,0.00
2018-07-22T02:24:20.226Z,0.00
2018-07-22T02:25:20.226Z,0.00
2018-07-22T02:26:20.228Z,0.00
2018-07-22T02:27:20.227Z,0.00
2018-07-22T02:28:20.228Z,0.00
2018-07-22T02:29:20.229Z,0.00
2018-07-22T02:30:20.229Z,0.00
2018-07-22T02:31:20.233Z,0.00
2018-07-22T02:32:20.229Z,0.00
2018-07-22T02:33:20.231Z,0.00
2018-07-22T02:34:20.231Z,0.00
2018-07-22T02:35:20.231Z,0.00
2018-07-22T02:36:20.231Z,0.00
2018-07-22T02:37:20.231Z,0.00
2018-07-22T02:38:20.233Z,0.00
2018-07-22T02:39:20.235Z,0.00
2018-07-22T02:40:20.231Z,0.00
2018-07-22T02:41:20.233Z,0.00
2018-07-22T02:42:20.234Z,0.00
2018-07-22T02:43:20.234Z,0.00
2018-07-22T02:44:20.237Z,0.00
2018-07-22T02:45:20.234Z,0.00
2018-07-22T02:46:20.236Z,0.00
2018-07-22T02:47:20.236Z,0.00
2018-07-22T02:48:20.235Z,0.00
2018-07-22T02:49:20.237Z,0.00
2018-07-22T02:50:20.240Z,0.00
2018-07-22T02:51:20.290Z,0.00
2018-07-22T02:52:20.248Z,0.00
2018-07-22T02:53:20.238Z,0.00
2018-07-22T02:54:20.239Z,0.00
2018-07-22T02:55:20.239Z,0.00
2018-07-22T02:56:20.239Z,0.00
2018-07-22T02:57:20.243Z,0.00
2018-07-22T02:58:20.242Z,0.00
2018-07-22T02:59:20.241Z,0.00
2018-07-22T03:00:20.240Z,0.00
2018-07-22T03:01:20.240Z,0.00
2018-07-22T03:02:20.242Z,0.00
2018-07-22T03:03:20.268Z,0.00
2018-07-22T03:04:20.242Z,0.00
2018-07-22T03:05:20.244Z,0.00
2018-07-22T03:06:20.246Z,0.00
2018-07-22T03:07:20.244Z,0.00
2018-07-22T03:08:20.244Z,0.00
2018-07-22T03:09:20.297Z,0.00
2018-07-22T03:10:20.245Z,0.00
2018-07-22T03:11:20.246Z,0.00
2018-07-22T03:12:20.246Z,0.00
2018-07-22T03:13:20.245Z,0.00
2018-07-22T03:14:20.248Z,0.00
2018-07-22T03:15:20.247Z,0.00
2018-07-22T03:16:20.246Z,0.00
2018-07-22T03:17:20.247Z,0.00
2018-07-22T03:18:20.262Z,0.00
2018-07-22T03:19:20.249Z,4.00
2018-07-22T03:20:20.251Z,4.00
2018-07-22T03:21:20.248Z,4.00
2018-07-22T03:22:20.251Z,4.00
2018-07-22T03:23:20.251Z,0.00
2018-07-22T03:24:20.249Z,4.00
2018-07-22T03:25:20.250Z,4.00
2018-07-22T03:26:20.251Z,4.00
2018-07-22T03:27:20.252Z,4.00
2018-07-22T03:28:20.252Z,4.00
2018-07-22T03:29:20.256Z,4.00
2018-07-22T03:30:20.252Z,4.00
2018-07-22T03:31:20.253Z,4.00
2018-07-22T03:32:20.255Z,4.00
2018-07-22T03:33:20.253Z,8.00
2018-07-22T03:34:20.255Z,8.00
2018-07-22T03:35:20.255Z,8.00
2018-07-22T03:36:20.255Z,8.00
2018-07-22T03:37:20.255Z,8.00
2018-07-22T03:38:20.256Z,8.00
2018-07-22T03:39:20.256Z,8.00
2018-07-22T03:40:20.256Z,8.00
2018-07-22T03:41:20.257Z,8.00
2018-07-22T03:42:20.257Z,8.00
2018-07-22T03:43:20.258Z,8.00
2018-07-22T03:44:20.257Z,8.00
2018-07-22T03:45:20.258Z,8.00
2018-07-22T03:46:20.260Z,8.00
2018-07-22T03:47:20.268Z,8.00
2018-07-22T03:48:20.260Z,12.00
2018-07-22T03:49:20.259Z,8.00
2018-07-22T03:50:20.261Z,12.00
2018-07-22T03:51:20.265Z,12.00
2018-07-22T03:52:20.261Z,16.00
2018-07-22T03:53:20.260Z,12.00
2018-07-22T03:54:20.262Z,16.00
2018-07-22T03:55:20.262Z,16.00
2018-07-22T03:56:20.264Z,20.00
2018-07-22T03:57:20.263Z,20.00
2018-07-22T03:58:20.263Z,16.00
2018-07-22T03:59:20.264Z,16.00
2018-07-22T04:00:20.264Z,16.00
2018-07-22T04:01:20.266Z,16.00
2018-07-22T04:02:20.265Z,16.00
2018-07-22T04:03:20.265Z,16.00
2018-07-22T04:04:20.266Z,12.00
2018-07-22T04:05:20.267Z,16.00
2018-07-22T04:06:20.267Z,16.00
2018-07-22T04:07:20.270Z,20.00
2018-07-22T04:08:20.267Z,24.00
2018-07-22T04:09:20.268Z,24.00
2018-07-22T04:10:20.269Z,32.00
2018-07-22T04:11:20.268Z,36.00
2018-07-22T04:12:20.269Z,40.00
2018-07-22T04:13:20.269Z,40.00
2018-07-22T04:14:20.270Z,48.00
2018-07-22T04:15:20.271Z,52.00
2018-07-22T04:16:20.269Z,56.00
2018-07-22T04:17:20.270Z,64.00
2018-07-22T04:18:20.271Z,64.00
2018-07-22T04:19:20.271Z,56.00
2018-07-22T04:20:20.271Z,44.00
2018-07-22T04:21:20.322Z,56.00
2018-07-22T04:22:20.273Z,72.00
2018-07-22T04:23:20.273Z,76.00
2018-07-22T04:24:20.273Z,84.00
2018-07-22T04:25:20.273Z,80.00
2018-07-22T04:26:20.274Z,72.00
2018-07-22T04:27:20.278Z,64.00
2018-07-22T04:28:20.275Z,60.00
2018-07-22T04:29:20.275Z,60.00
2018-07-22T04:30:20.275Z,52.00
2018-07-22T04:31:20.276Z,60.00
2018-07-22T04:32:20.274Z,64.00
2018-07-22T04:33:20.279Z,68.00
2018-07-22T04:34:20.276Z,68.00
2018-07-22T04:35:20.277Z,68.00
2018-07-22T04:36:20.279Z,64.00
2018-07-22T04:37:20.277Z,60.00
2018-07-22T04:38:20.278Z,48.00
2018-07-22T04:39:20.279Z,56.00
2018-07-22T04:40:20.278Z,84.00
2018-07-22T04:41:20.279Z,84.00
2018-07-22T04:42:20.279Z,76.00
2018-07-22T04:43:20.306Z,84.00
2018-07-22T04:44:20.279Z,84.00
2018-07-22T04:45:20.279Z,96.00
2018-07-22T04:46:20.331Z,100.00
2018-07-22T04:47:20.281Z,108.00
2018-07-22T04:48:20.284Z,116.00
2018-07-22T04:49:20.281Z,132.00
2018-07-22T04:50:20.282Z,140.00
2018-07-22T04:51:20.283Z,144.00
2018-07-22T04:52:20.282Z,128.00
2018-07-22T04:53:20.284Z,112.00
2018-07-22T04:54:20.284Z,112.00
2018-07-22T04:55:20.285Z,88.00
2018-07-22T04:56:20.289Z,104.00
2018-07-22T04:57:20.284Z,136.00
2018-07-22T04:58:20.286Z,140.00
2018-07-22T04:59:20.286Z,104.00
2018-07-22T05:00:20.286Z,124.00
2018-07-22T05:01:20.286Z,180.00
2018-07-22T05:02:20.287Z,240.00
2018-07-22T05:03:20.288Z,236.00
2018-07-22T05:04:20.287Z,228.00
2018-07-22T05:05:20.288Z,172.00
2018-07-22T05:06:20.289Z,144.00
2018-07-22T05:07:20.289Z,132.00
2018-07-22T05:08:20.289Z,132.00
2018-07-22T05:09:20.297Z,140.00
2018-07-22T05:10:20.291Z,164.00
2018-07-22T05:11:20.291Z,160.00
2018-07-22T05:12:20.293Z,144.00
2018-07-22T05:13:20.291Z,160.00
2018-07-22T05:14:20.292Z,164.00
2018-07-22T05:15:20.298Z,148.00
2018-07-22T05:16:20.293Z,152.00
2018-07-22T05:17:20.294Z,172.00
2018-07-22T05:18:20.293Z,168.00
2018-07-22T05:19:20.294Z,160.00
2018-07-22T05:20:20.294Z,172.00
2018-07-22T05:21:20.293Z,176.00
2018-07-22T05:22:20.294Z,200.00
2018-07-22T05:23:20.297Z,216.00
2018-07-22T05:24:20.294Z,196.00
2018-07-22T05:25:20.295Z,172.00
2018-07-22T05:26:20.296Z,172.00
2018-07-22T05:27:20.296Z,212.00
2018-07-22T05:28:20.315Z,200.00
2018-07-22T05:29:20.296Z,188.00
2018-07-22T05:30:20.298Z,156.00
2018-07-22T05:31:20.298Z,168.00
2018-07-22T05:32:20.302Z,224.00
2018-07-22T05:33:20.298Z,296.00
2018-07-22T05:34:20.298Z,284.00
2018-07-22T05:35:20.304Z,296.00
2018-07-22T05:36:20.300Z,284.00
2018-07-22T05:37:20.300Z,308.00
2018-07-22T05:38:20.300Z,340.00
2018-07-22T05:39:20.301Z,376.00
2018-07-22T05:40:20.300Z,420.00
2018-07-22T05:41:20.301Z,456.00
2018-07-22T05:42:20.302Z,480.00
2018-07-22T05:43:20.302Z,520.00
2018-07-22T05:44:20.306Z,552.00
2018-07-22T05:45:20.301Z,580.00
2018-07-22T05:46:20.304Z,608.00
2018-07-22T05:47:20.303Z,608.00
2018-07-22T05:48:20.303Z,600.00
2018-07-22T05:49:20.304Z,596.00
2018-07-22T05:50:20.305Z,596.00
2018-07-22T05:51:20.306Z,596.00
2018-07-22T05:52:20.305Z,596.00
2018-07-22T05:53:20.306Z,600.00
2018-07-22T05:54:20.308Z,612.00
2018-07-22T05:55:20.307Z,628.00
2018-07-22T05:56:20.306Z,656.00
2018-07-22T05:57:20.310Z,640.00
2018-07-22T05:58:20.307Z,628.00
2018-07-22T05:59:20.311Z,600.00
2018-07-22T06:00:20.307Z,528.00
2018-07-22T06:01:20.308Z,452.00
2018-07-22T06:02:20.308Z,420.00
2018-07-22T06:03:20.308Z,360.00
2018-07-22T06:04:20.308Z,368.00
2018-07-22T06:05:20.312Z,404.00
2018-07-22T06:06:20.316Z,520.00
2018-07-22T06:07:20.312Z,616.00
2018-07-22T06:08:20.308Z,612.00
2018-07-22T06:09:20.310Z,652.00
2018-07-22T06:10:20.310Z,700.00
2018-07-22T06:11:20.312Z,724.00
2018-07-22T06:12:20.310Z,676.00
2018-07-22T06:13:20.310Z,640.00
2018-07-22T06:14:20.310Z,616.00
2018-07-22T06:15:20.312Z,556.00
2018-07-22T06:16:20.311Z,640.00
2018-07-22T06:17:20.312Z,712.00
2018-07-22T06:18:20.313Z,776.00
2018-07-22T06:19:20.312Z,772.00
2018-07-22T06:20:20.312Z,708.00
2018-07-22T06:21:20.314Z,596.00
2018-07-22T06:22:20.314Z,500.00
2018-07-22T06:23:20.367Z,592.00
2018-07-22T06:24:20.315Z,704.00
2018-07-22T06:25:20.314Z,744.00
2018-07-22T06:26:20.315Z,608.00
2018-07-22T06:27:20.316Z,420.00
2018-07-22T06:28:20.316Z,384.00
2018-07-22T06:29:20.316Z,380.00
2018-07-22T06:30:20.319Z,308.00
2018-07-22T06:31:20.317Z,292.00
2018-07-22T06:32:20.373Z,356.00
2018-07-22T06:33:20.318Z,416.00
2018-07-22T06:34:20.318Z,476.00
2018-07-22T06:35:20.364Z,476.00
2018-07-22T06:36:20.319Z,480.00
2018-07-22T06:37:20.318Z,524.00
2018-07-22T06:38:20.319Z,536.00
2018-07-22T06:39:20.321Z,528.00
2018-07-22T06:40:20.320Z,576.00
2018-07-22T06:41:20.321Z,560.00
2018-07-22T06:42:20.324Z,608.00
2018-07-22T06:43:20.322Z,612.00
2018-07-22T06:44:20.321Z,568.00
2018-07-22T06:45:20.321Z,500.00
2018-07-22T06:46:20.325Z,496.00
2018-07-22T06:47:20.324Z,480.00
2018-07-22T06:48:20.324Z,492.00
2018-07-22T06:49:20.324Z,580.00
2018-07-22T06:50:20.324Z,628.00
2018-07-22T06:51:20.326Z,660.00
2018-07-22T06:52:20.326Z,684.00
2018-07-22T06:53:20.327Z,740.00
2018-07-22T06:54:20.338Z,792.00
2018-07-22T06:55:20.329Z,772.00
2018-07-22T06:56:20.328Z,892.00
2018-07-22T06:57:20.376Z,936.00
2018-07-22T06:58:20.329Z,1064.00
2018-07-22T06:59:20.330Z,1076.00
2018-07-22T07:00:20.333Z,1056.00
2018-07-22T07:01:20.331Z,948.00
2018-07-22T07:02:20.331Z,856.00
2018-07-22T07:03:20.335Z,808.00
2018-07-22T07:04:20.332Z,704.00
2018-07-22T07:05:20.345Z,672.00
2018-07-22T07:06:20.335Z,700.00
2018-07-22T07:07:20.335Z,820.00
2018-07-22T07:08:20.334Z,896.00
2018-07-22T07:09:20.336Z,968.00
2018-07-22T07:10:20.336Z,1000.00
2018-07-22T07:11:20.337Z,1020.00
2018-07-22T07:12:20.336Z,1024.00
2018-07-22T07:13:20.337Z,972.00
2018-07-22T07:14:20.337Z,892.00
2018-07-22T07:15:20.338Z,940.00
2018-07-22T07:16:20.339Z,984.00
2018-07-22T07:17:20.340Z,1040.00
2018-07-22T07:18:20.340Z,916.00
2018-07-22T07:19:20.342Z,752.00
2018-07-22T07:20:20.339Z,620.00
2018-07-22T07:21:20.340Z,568.00
2018-07-22T07:22:20.341Z,544.00
2018-07-22T07:23:20.342Z,540.00
2018-07-22T07:24:20.343Z,592.00
2018-07-22T07:25:20.342Z,548.00
2018-07-22T07:26:20.344Z,520.00
2018-07-22T07:27:20.342Z,540.00
2018-07-22T07:28:20.342Z,640.00
2018-07-22T07:29:20.343Z,744.00
2018-07-22T07:30:20.344Z,780.00
2018-07-22T07:31:20.344Z,772.00
2018-07-22T07:32:20.342Z,696.00
2018-07-22T07:33:20.343Z,656.00
2018-07-22T07:34:20.419Z,692.00
2018-07-22T07:35:20.344Z,652.00
2018-07-22T07:36:20.344Z,716.00
2018-07-22T07:37:20.348Z,844.00
2018-07-22T07:38:20.345Z,968.00
2018-07-22T07:39:20.345Z,944.00
2018-07-22T07:40:20.345Z,1008.00
2018-07-22T07:41:20.346Z,1072.00
2018-07-22T07:42:20.412Z,1068.00
2018-07-22T07:43:20.347Z,1000.00
2018-07-22T07:44:20.349Z,1008.00
2018-07-22T07:45:20.346Z,1000.00
2018-07-22T07:46:20.348Z,1052.00
2018-07-22T07:47:20.348Z,1084.00
2018-07-22T07:48:20.346Z,1060.00
2018-07-22T07:49:20.347Z,1024.00
2018-07-22T07:50:20.347Z,968.00
2018-07-22T07:51:20.349Z,920.00
2018-07-22T07:52:20.348Z,864.00
2018-07-22T07:53:20.389Z,820.00
2018-07-22T07:54:20.349Z,720.00
2018-07-22T07:55:20.350Z,684.00
2018-07-22T07:56:20.349Z,668.00
2018-07-22T07:57:20.350Z,708.00
2018-07-22T07:58:20.350Z,724.00
2018-07-22T07:59:20.352Z,732.00
2018-07-22T08:00:20.353Z,796.00
2018-07-22T08:01:20.760Z,880.00
2018-07-22T08:02:20.351Z,876.00
2018-07-22T08:03:20.351Z,784.00
2018-07-22T08:04:20.352Z,844.00
2018-07-22T08:05:20.353Z,860.00
2018-07-22T08:06:20.354Z,900.00
2018-07-22T08:07:20.355Z,944.00
2018-07-22T08:08:20.354Z,1108.00
2018-07-22T08:09:20.356Z,1168.00
2018-07-22T08:10:20.355Z,1216.00
2018-07-22T08:11:20.356Z,1212.00
2018-07-22T08:12:20.356Z,980.00
2018-07-22T08:13:20.357Z,704.00
2018-07-22T08:14:20.358Z,728.00
2018-07-22T08:15:20.358Z,772.00
2018-07-22T08:16:20.362Z,812.00
2018-07-22T08:17:20.358Z,756.00
2018-07-22T08:18:20.362Z,760.00
2018-07-22T08:19:20.361Z,964.00
2018-07-22T08:20:20.360Z,1052.00
2018-07-22T08:21:20.367Z,1072.00
2018-07-22T08:22:20.759Z,1076.00
2018-07-22T08:23:20.539Z,1284.00
2018-07-22T08:24:20.363Z,1504.00
2018-07-22T08:25:20.363Z,1408.00
2018-07-22T08:26:20.364Z,1444.00
2018-07-22T08:27:20.365Z,1480.00
2018-07-22T08:28:20.363Z,1384.00
2018-07-22T08:29:20.366Z,1460.00
2018-07-22T08:30:20.366Z,1548.00
2018-07-22T08:31:20.369Z,1320.00
2018-07-22T08:32:20.367Z,1336.00
2018-07-22T08:33:20.368Z,1316.00
2018-07-22T08:34:20.369Z,1260.00
2018-07-22T08:35:20.369Z,1324.00
2018-07-22T08:36:20.369Z,1468.00
2018-07-22T08:37:20.371Z,1516.00
2018-07-22T08:38:20.370Z,1688.00
2018-07-22T08:39:20.372Z,1880.00
2018-07-22T08:40:20.372Z,1940.00
2018-07-22T08:41:20.378Z,1952.00
2018-07-22T08:42:20.373Z,1864.00
2018-07-22T08:43:20.374Z,1732.00
2018-07-22T08:44:20.375Z,1640.00
2018-07-22T08:45:20.375Z,1632.00
2018-07-22T08:46:20.377Z,1628.00
2018-07-22T08:47:20.376Z,1644.00
2018-07-22T08:48:20.377Z,1660.00
2018-07-22T08:49:20.380Z,1648.00
2018-07-22T08:50:20.379Z,1604.00
2018-07-22T08:51:20.379Z,1536.00
2018-07-22T08:52:20.378Z,1508.00
2018-07-22T08:53:20.426Z,1480.00
2018-07-22T08:54:20.380Z,1448.00
2018-07-22T08:55:20.381Z,1436.00
2018-07-22T08:56:20.381Z,1408.00
2018-07-22T08:57:20.381Z,1380.00
2018-07-22T08:58:20.382Z,1336.00
2018-07-22T08:59:20.384Z,1304.00
2018-07-22T09:00:20.384Z,1312.00
2018-07-22T09:01:20.385Z,1328.00
2018-07-22T09:02:20.385Z,1348.00
2018-07-22T09:03:20.386Z,1348.00
2018-07-22T09:04:20.385Z,1368.00
2018-07-22T09:05:20.388Z,1372.00
2018-07-22T09:06:20.388Z,1436.00
2018-07-22T09:07:20.677Z,1508.00
2018-07-22T09:08:20.408Z,1508.00
2018-07-22T09:09:20.389Z,1464.00
2018-07-22T09:10:20.389Z,1456.00
2018-07-22T09:11:20.391Z,1484.00
2018-07-22T09:12:20.390Z,1480.00
2018-07-22T09:13:20.392Z,1544.00
2018-07-22T09:14:20.391Z,1724.00
2018-07-22T09:15:20.396Z,1880.00
2018-07-22T09:16:20.393Z,1988.00
2018-07-22T09:17:20.393Z,2044.00
2018-07-22T09:18:20.395Z,2084.00
2018-07-22T09:19:20.396Z,2036.00
2018-07-22T09:20:20.395Z,1972.00
2018-07-22T09:21:20.396Z,2024.00
2018-07-22T09:22:20.397Z,2024.00
2018-07-22T09:23:20.398Z,1960.00
2018-07-22T09:24:20.399Z,1992.00
2018-07-22T09:25:20.399Z,1948.00
2018-07-22T09:26:20.399Z,1972.00
2018-07-22T09:27:20.404Z,1920.00
2018-07-22T09:28:20.401Z,1824.00
2018-07-22T09:29:20.405Z,1808.00
2018-07-22T09:30:20.404Z,1932.00
2018-07-22T09:31:20.473Z,2112.00
2018-07-22T09:32:20.404Z,2244.00
2018-07-22T09:33:20.405Z,2352.00
2018-07-22T09:34:20.409Z,2416.00
2018-07-22T09:35:20.408Z,2516.00
2018-07-22T09:36:20.576Z,2816.00
2018-07-22T09:37:20.410Z,3132.00
2018-07-22T09:38:20.411Z,3264.00
2018-07-22T09:39:20.413Z,3308.00
2018-07-22T09:40:20.412Z,3272.00
2018-07-22T09:41:20.413Z,3056.00
2018-07-22T09:42:20.939Z,2916.00
2018-07-22T09:43:20.417Z,2916.00
2018-07-22T09:44:20.416Z,2900.00
2018-07-22T09:45:20.418Z,2872.00
2018-07-22T09:46:20.419Z,2940.00
2018-07-22T09:47:20.421Z,3068.00
2018-07-22T09:48:20.422Z,3028.00
2018-07-22T09:49:20.423Z,2800.00
2018-07-22T09:50:20.424Z,2680.00
2018-07-22T09:51:20.425Z,2680.00
2018-07-22T09:52:20.427Z,2584.00
2018-07-22T09:53:20.427Z,2428.00
2018-07-22T09:54:20.429Z,2344.00
2018-07-22T09:55:20.431Z,2352.00
2018-07-22T09:56:20.431Z,2392.00
2018-07-22T09:57:20.433Z,2352.00
2018-07-22T09:58:20.435Z,2324.00
2018-07-22T09:59:20.480Z,2420.00
2018-07-22T10:00:20.439Z,2520.00
2018-07-22T10:01:20.442Z,2436.00
2018-07-22T10:02:20.440Z,2372.00
2018-07-22T10:03:20.446Z,2348.00
2018-07-22T10:04:20.443Z,2472.00
2018-07-22T10:05:20.444Z,2612.00
2018-07-22T10:06:20.448Z,2508.00
2018-07-22T10:07:20.450Z,2272.00
2018-07-22T10:08:20.451Z,2052.00
2018-07-22T10:09:20.453Z,1972.00
2018-07-22T10:10:20.455Z,2096.00
2018-07-22T10:11:20.457Z,2144.00
2018-07-22T10:12:20.458Z,2124.00
2018-07-22T10:13:20.461Z,2192.00
2018-07-22T10:14:20.472Z,2276.00
2018-07-22T10:15:20.464Z,2316.00
2018-07-22T10:16:20.465Z,2344.00
2018-07-22T10:17:20.468Z,2348.00
2018-07-22T10:18:20.470Z,2296.00
2018-07-22T10:19:20.472Z,2280.00
2018-07-22T10:20:20.475Z,2264.00
2018-07-22T10:21:20.477Z,2316.00
2018-07-22T10:22:20.478Z,2452.00
2018-07-22T10:23:20.517Z,2624.00
2018-07-22T10:24:20.482Z,2808.00
2018-07-22T10:25:20.486Z,2904.00
2018-07-22T10:26:20.491Z,2880.00
2018-07-22T10:27:20.489Z,2788.00
2018-07-22T10:28:20.491Z,2704.00
2018-07-22T10:29:20.494Z,2716.00
2018-07-22T10:30:20.495Z,2912.00
2018-07-22T10:31:20.498Z,3132.00
2018-07-22T10:32:20.512Z,3224.00
2018-07-22T10:33:20.502Z,3260.00
2018-07-22T10:34:20.504Z,3260.00
2018-07-22T10:35:20.511Z,3204.00
2018-07-22T10:36:20.510Z,3004.00
2018-07-22T10:37:20.512Z,2728.00
2018-07-22T10:38:20.514Z,2480.00
2018-07-22T10:39:20.520Z,2284.00
2018-07-22T10:40:20.520Z,2084.00
2018-07-22T10:41:20.521Z,1900.00
2018-07-22T10:42:20.523Z,1792.00
2018-07-22T10:43:20.564Z,1708.00
2018-07-22T10:44:20.527Z,1620.00
2018-07-22T10:45:20.530Z,1500.00
2018-07-22T10:46:20.533Z,1404.00
2018-07-22T10:47:20.534Z,1364.00
2018-07-22T10:48:20.536Z,1352.00
2018-07-22T10:49:20.539Z,1340.00
2018-07-22T10:50:20.548Z,1324.00
2018-07-22T10:51:20.544Z,1316.00
2018-07-22T10:52:20.545Z,1320.00
2018-07-22T10:53:20.548Z,1312.00
2018-07-22T10:54:20.550Z,1308.00
2018-07-22T10:55:20.554Z,1268.00
2018-07-22T10:56:20.554Z,1220.00
2018-07-22T10:57:20.559Z,1216.00
2018-07-22T10:58:20.558Z,1184.00
2018-07-22T10:59:20.560Z,1148.00
2018-07-22T11:00:20.562Z,1296.00
2018-07-22T11:01:20.565Z,1364.00
2018-07-22T11:02:20.609Z,1412.00
2018-07-22T11:03:20.633Z,1432.00
2018-07-22T11:04:20.571Z,1316.00
2018-07-22T11:05:20.573Z,1212.00
2018-07-22T11:06:20.575Z,1140.00
2018-07-22T11:07:20.580Z,996.00
2018-07-22T11:08:20.579Z,944.00
2018-07-22T11:09:20.580Z,836.00
2018-07-22T11:10:20.585Z,808.00
2018-07-22T11:11:20.585Z,836.00
2018-07-22T11:12:20.586Z,904.00
2018-07-22T11:13:20.589Z,936.00
2018-07-22T11:14:20.905Z,900.00
2018-07-22T11:15:20.594Z,844.00
2018-07-22T11:16:20.850Z,864.00
2018-07-22T11:17:20.599Z,900.00
2018-07-22T11:18:20.599Z,888.00
2018-07-22T11:19:20.601Z,900.00
2018-07-22T11:20:20.603Z,944.00
2018-07-22T11:21:20.741Z,1152.00
2018-07-22T11:22:20.608Z,844.00
2018-07-22T11:23:20.608Z,888.00
2018-07-22T11:24:20.609Z,980.00
2018-07-22T11:25:20.614Z,952.00
2018-07-22T11:26:20.613Z,980.00
2018-07-22T11:27:20.616Z,968.00
2018-07-22T11:28:20.617Z,968.00
2018-07-22T11:29:20.620Z,944.00
2018-07-22T11:30:20.621Z,980.00
2018-07-22T11:31:20.623Z,976.00
2018-07-22T11:32:20.624Z,976.00
2018-07-22T11:33:20.625Z,996.00
2018-07-22T11:34:20.628Z,996.00
2018-07-22T11:35:20.630Z,1004.00
2018-07-22T11:36:20.638Z,1024.00
2018-07-22T11:37:20.632Z,1040.00
2018-07-22T11:38:20.634Z,1040.00
2018-07-22T11:39:20.637Z,1020.00
2018-07-22T11:40:20.637Z,988.00
2018-07-22T11:41:20.637Z,996.00
2018-07-22T11:42:20.641Z,996.00
2018-07-22T11:43:20.642Z,996.00
2018-07-22T11:44:20.644Z,996.00
2018-07-22T11:45:20.646Z,1004.00
2018-07-22T11:46:20.649Z,1072.00
2018-07-22T11:47:20.647Z,1152.00
2018-07-22T11:48:20.648Z,1232.00
2018-07-22T11:49:20.650Z,1244.00
2018-07-22T11:50:20.654Z,1240.00
2018-07-22T11:51:20.654Z,1164.00
2018-07-22T11:52:21.847Z,1112.00
2018-07-22T11:53:20.655Z,1100.00
2018-07-22T11:54:20.657Z,1092.00
2018-07-22T11:55:20.659Z,1076.00
2018-07-22T11:56:20.659Z,1072.00
2018-07-22T11:57:20.661Z,1056.00
2018-07-22T11:58:20.663Z,1024.00
2018-07-22T11:59:20.664Z,1044.00
2018-07-22T12:00:20.665Z,1100.00
2018-07-22T12:01:20.691Z,1088.00
2018-07-22T12:02:20.668Z,1056.00
2018-07-22T12:03:20.668Z,984.00
2018-07-22T12:04:20.670Z,888.00
2018-07-22T12:05:20.763Z,816.00
2018-07-22T12:06:20.715Z,784.00
2018-07-22T12:07:20.763Z,772.00
2018-07-22T12:08:20.718Z,760.00
2018-07-22T12:09:20.703Z,756.00
2018-07-22T12:10:20.703Z,792.00
2018-07-22T12:11:20.726Z,804.00
2018-07-22T12:12:20.720Z,812.00
2018-07-22T12:13:20.699Z,792.00
2018-07-22T12:14:20.766Z,804.00
2018-07-22T12:15:20.762Z,820.00
2018-07-22T12:16:20.682Z,816.00
2018-07-22T12:17:20.693Z,832.00
2018-07-22T12:18:20.694Z,868.00
2018-07-22T12:19:20.746Z,900.00
2018-07-22T12:20:20.770Z,924.00
2018-07-22T12:21:20.798Z,984.00
2018-07-22T12:22:20.725Z,1124.00
2018-07-22T12:23:20.704Z,1212.00
2018-07-22T12:24:20.717Z,1184.00
2018-07-22T12:25:20.697Z,1176.00
2018-07-22T12:26:20.731Z,1212.00
2018-07-22T12:27:20.697Z,1232.00
2018-07-22T12:28:20.779Z,1244.00
2018-07-22T12:29:20.754Z,1280.00
2018-07-22T12:30:20.759Z,1288.00
2018-07-22T12:31:20.702Z,1320.00
2018-07-22T12:32:20.737Z,1392.00
2018-07-22T12:33:20.732Z,1452.00
2018-07-22T12:34:20.725Z,1436.00
2018-07-22T12:35:20.700Z,1424.00
2018-07-22T12:36:20.702Z,1416.00
2018-07-22T12:37:20.701Z,1476.00